HUAL Seoul — LADO6 — position and weather

sailwx.info

Track history (hours):
 
Tides and Currents Weather Stations Pressure Air Temp Water Temp Dewpoint Dewpoint Depression Visibility Wind Speed Wind Dir Waves Ship Positions

HUAL Seoul

Last reported at 2018-Apr-01 07:51 UTC. Time now 2018-Apr-20 22:14 UTC.
Position N 34°41' E 140°33'.
Warning: this ship's position is 19 days out of date.

Type: Cargo ship. MMSI: 257496000.

Date/timePositionNaut miles runAvg speedWind from/ knotsBaromVisibWave heightAir tempDewpointWater temp
2018-Apr-01 07:51N 34°41' E 140°33'919.5
2018-Apr-01 07:24N 34°40' E 140°22'1320.4
2018-Apr-01 06:47N 34°40' E 140°07'1219.5
2018-Apr-01 06:09N 34°39' E 139°52'319.0
2018-Apr-01 05:59N 34°38' E 139°48'1019.3
2018-Apr-01 05:29N 34°38' E 139°36'919.5
2018-Apr-01 05:00N 34°37' E 139°25'1019.7
2018-Apr-01 04:31N 34°35' E 139°13'1019.1
2018-Apr-01 04:00N 34°32' E 139°02'1019.4
2018-Apr-01 03:29N 34°29' E 138°50'918.1
2018-Apr-01 03:00N 34°26' E 138°40'918.1
2018-Apr-01 02:30N 34°24' E 138°30'917.7
2018-Apr-01 01:59N 34°21' E 138°19'917.5
2018-Apr-01 01:28N 34°21' E 138°08'1016.7
2018-Apr-01 00:51N 34°21' E 137°56'616.5
2018-Apr-01 00:30N 34°20' E 137°49'915.5
2018-Mar-31 23:57N 34°25' E 137°40'816.4
2018-Mar-31 23:26N 34°26' E 137°30'716.3
2018-Mar-31 23:00N 34°27' E 137°21'1813.3
2018-Mar-31 21:37N 34°33' E 137°00'312.7
2018-Mar-31 21:25N 34°35' E 136°58'615.8
2018-Mar-31 21:01N 34°39' E 136°52'916.9
2018-Mar-31 20:30N 34°46' E 136°47'816.9
2018-Mar-31 20:01N 34°55' E 136°46'713.2
2018-Mar-31 19:30N 35°00' E 136°50'3 5.0
2018-Mar-31 18:59N 35°03' E 136°50'0 0.1
2018-Mar-31 18:29N 35°03' E 136°50'0 0.0
2018-Mar-31 17:59N 35°03' E 136°50'0 0.0
2018-Mar-31 17:29N 35°03' E 136°50'0 0.0
2018-Mar-31 16:59N 35°03' E 136°50'0 0.0
2018-Mar-31 16:29N 35°03' E 136°50'0 0.0
2018-Mar-31 15:59N 35°03' E 136°50'0 0.0
2018-Mar-31 15:29N 35°03' E 136°50'0 0.0
2018-Mar-31 14:59N 35°03' E 136°50'0 0.0
2018-Mar-31 14:29N 35°03' E 136°50'0 0.0
2018-Mar-31 13:59N 35°03' E 136°50'0 0.0
2018-Mar-31 13:29N 35°03' E 136°50'0 0.0
2018-Mar-31 12:59N 35°03' E 136°50'0 0.0
2018-Mar-31 12:29N 35°03' E 136°50'0 0.0
2018-Mar-31 11:59N 35°03' E 136°50'0 0.0
2018-Mar-31 11:29N 35°03' E 136°50'0 0.0
2018-Mar-31 10:59N 35°03' E 136°50'0 0.0
2018-Mar-31 10:29N 35°03' E 136°50'0 0.0
2018-Mar-31 09:55N 35°03' E 136°50'0 0.0
2018-Mar-31 09:29N 35°03' E 136°50'0 0.0
2018-Mar-31 08:59N 35°03' E 136°50'0 0.0
2018-Mar-31 08:26N 35°03' E 136°50'0 0.0
2018-Mar-31 08:00N 35°03' E 136°50'0 0.6
2018-Mar-31 07:30N 35°03' E 136°50'2 3.8
2018-Mar-31 07:00N 35°01' E 136°50'510.7
2018-Mar-31 06:30N 34°56' E 136°47'714.0
2018-Mar-31 06:00N 34°49' E 136°47'917.5
2018-Mar-31 05:30N 34°41' E 136°52'917.2
2018-Mar-31 05:00N 34°35' E 136°59'713.5
2018-Mar-31 04:30N 34°31' E 137°06'5 9.6
2018-Mar-31 03:59N 34°27' E 137°10'4 7.6
2018-Mar-31 03:31N 34°27' E 137°14'1 1.6
2018-Mar-31 03:01N 34°27' E 137°15'2 4.5
2018-Mar-31 02:30N 34°27' E 137°18'916.8
2018-Mar-31 01:59N 34°26' E 137°28'1518.5
2018-Mar-31 01:11N 34°24' E 137°46'418.9
2018-Mar-31 01:00N 34°24' E 137°50'1018.9
2018-Mar-31 00:29N 34°23' E 138°02'918.9
2018-Mar-31 00:00N 34°22' E 138°13'1018.5
2018-Mar-30 23:28N 34°21' E 138°25'818.1
2018-Mar-30 23:00N 34°24' E 138°35'917.8
2018-Mar-30 22:30N 34°26' E 138°45'917.7
2018-Mar-30 22:00N 34°30' E 138°55'817.1
2018-Mar-30 21:30N 34°33' E 139°04'917.6
2018-Mar-30 21:00N 34°35' E 139°15'1017.3
2018-Mar-30 20:27N 34°37' E 139°26'716.0
2018-Mar-30 20:00N 34°42' E 139°33'917.9
2018-Mar-30 19:30N 34°50' E 139°37'918.8
2018-Mar-30 19:00N 34°59' E 139°41'917.8
2018-Mar-30 18:30N 35°07' E 139°44'612.8
2018-Mar-30 18:00N 35°14' E 139°46'611.9
2018-Mar-30 17:30N 35°19' E 139°43'612.1
2018-Mar-30 17:00N 35°25' E 139°43'5 9.3
2018-Mar-30 16:30N 35°29' E 139°45'1 1.6
2018-Mar-30 15:58N 35°30' E 139°46'0 0.0
2018-Mar-30 15:30N 35°30' E 139°46'0 0.0
2018-Mar-30 15:00N 35°30' E 139°46'0 0.0
2018-Mar-30 14:30N 35°30' E 139°46'0 0.0
2018-Mar-30 14:00N 35°30' E 139°46'0 0.0
2018-Mar-30 13:30N 35°30' E 139°46'0 0.0
2018-Mar-30 13:00N 35°30' E 139°46'0 0.0
2018-Mar-30 12:30N 35°30' E 139°46'0 0.0
2018-Mar-30 12:00N 35°30' E 139°46'0 0.0
2018-Mar-30 11:30N 35°30' E 139°46'0 0.0
2018-Mar-30 11:00N 35°30' E 139°46'0 0.0
2018-Mar-30 10:30N 35°30' E 139°46'0 0.0
2018-Mar-30 10:01N 35°30' E 139°46'0 0.0
2018-Mar-30 09:31N 35°30' E 139°46'0 0.0
2018-Mar-30 09:00N 35°30' E 139°46'0 0.0
2018-Mar-30 08:30N 35°30' E 139°46'0 0.0
2018-Mar-30 08:00N 35°30' E 139°46'0 0.0
2018-Mar-30 07:30N 35°30' E 139°46'0 0.0
2018-Mar-30 07:00N 35°30' E 139°46'0 0.0
2018-Mar-30 06:30N 35°30' E 139°46'0 0.4
2018-Mar-30 06:00N 35°30' E 139°47'2 4.9
2018-Mar-30 05:30N 35°28' E 139°48'713.1
2018-Mar-30 05:01N 35°21' E 139°45'4 8.2
2018-Mar-30 04:30N 35°19' E 139°41'2 3.1
2018-Mar-30 03:59N 35°19' E 139°39'0 0.0
2018-Mar-30 03:30N 35°19' E 139°39'0 0.0
2018-Mar-30 03:00N 35°19' E 139°39'0 0.0
2018-Mar-30 02:30N 35°19' E 139°39'0 0.0
2018-Mar-30 02:00N 35°19' E 139°39'0 0.0
2018-Mar-30 01:30N 35°19' E 139°39'0 0.0
2018-Mar-30 01:00N 35°19' E 139°39'0 0.0
2018-Mar-30 00:30N 35°19' E 139°39'0 0.0
2018-Mar-30 00:00N 35°19' E 139°39'0 0.0
2018-Mar-29 23:30N 35°19' E 139°39'0 0.0
2018-Mar-29 23:00N 35°19' E 139°39'0 0.1
2018-Mar-29 22:30N 35°19' E 139°39'2 3.2
2018-Mar-29 22:00N 35°19' E 139°41'5 9.7
2018-Mar-29 21:30N 35°16' E 139°46'510.7
2018-Mar-29 21:00N 35°11' E 139°47'3 6.4
2018-Mar-29 20:30N 35°08' E 139°45'4 8.7
2018-Mar-29 20:00N 35°04' E 139°43'5 9.1
2018-Mar-29 19:31N 34°60' E 139°41'5 9.2
2018-Mar-29 19:00N 34°55' E 139°40'5 9.2
2018-Mar-29 18:30N 34°51' E 139°38'3 5.8
2018-Mar-29 18:00N 34°48' E 139°37'4 8.2
2018-Mar-29 17:30N 34°45' E 139°35'510.3
2018-Mar-29 17:00N 34°40' E 139°33'5 9.9
2018-Mar-29 16:30N 34°36' E 139°28'610.8
2018-Mar-29 15:57N 34°35' E 139°21'511.3
2018-Mar-29 15:30N 34°34' E 139°15'610.9
2018-Mar-29 14:58N 34°33' E 139°08'511.2
2018-Mar-29 14:30N 34°30' E 139°03'612.3
2018-Mar-29 14:01N 34°27' E 138°57'816.4
2018-Mar-29 13:30N 34°24' E 138°47'816.0
2018-Mar-29 13:00N 34°20' E 138°38'816.1
2018-Mar-29 12:30N 34°16' E 138°30'816.0
2018-Mar-29 11:59N 34°13' E 138°21'815.3
2018-Mar-29 11:29N 34°09' E 138°13'715.0
2018-Mar-29 11:01N 34°06' E 138°05'815.0
2018-Mar-29 10:28N 34°03' E 137°56'714.7
2018-Mar-29 10:00N 33°60' E 137°49'714.6
2018-Mar-29 09:30N 33°57' E 137°41'814.4
2018-Mar-29 08:58N 33°53' E 137°33'714.3
2018-Mar-29 08:29N 33°49' E 137°26'814.5
2018-Mar-29 07:55N 33°45' E 137°17'266 9.1
2018-Mar-28 02:46N 33°13' E 131°60'3 9.8
2018-Mar-28 02:29N 33°16' E 131°59'612.9
2018-Mar-28 02:00N 33°22' E 131°59'917.8
2018-Mar-28 01:30N 33°29' E 132°06'1018.7
2018-Mar-28 00:59N 33°36' E 132°14'817.4
2018-Mar-28 00:30N 33°41' E 132°22'917.4
2018-Mar-28 00:00N 33°47' E 132°30'815.3
2018-Mar-27 23:30N 33°53' E 132°35'814.0
2018-Mar-27 22:57N 34°01' E 132°33'715.2
2018-Mar-27 22:30N 34°04' E 132°25'815.8
2018-Mar-27 22:00N 34°11' E 132°20'815.5
2018-Mar-27 21:30N 34°18' E 132°22'2 4.5
2018-Mar-27 20:58N 34°21' E 132°22'0 0.0
2018-Mar-27 20:25N 34°21' E 132°22'0 0.0
2018-Mar-27 19:58N 34°21' E 132°22'0 0.0
2018-Mar-27 19:30N 34°21' E 132°22'0 0.0
2018-Mar-27 19:00N 34°21' E 132°22'0 0.0
2018-Mar-27 18:30N 34°21' E 132°22'0 0.0
2018-Mar-27 18:00N 34°21' E 132°22'0 0.0
2018-Mar-27 17:30N 34°21' E 132°22'0 0.0
2018-Mar-27 17:00N 34°21' E 132°22'0 0.0
2018-Mar-27 16:30N 34°21' E 132°22'0 0.0
2018-Mar-27 16:00N 34°21' E 132°22'0 0.0
2018-Mar-27 15:30N 34°21' E 132°22'0 0.0
2018-Mar-27 15:00N 34°21' E 132°22'0 0.0
2018-Mar-27 14:30N 34°21' E 132°22'0 0.0
2018-Mar-27 14:00N 34°21' E 132°22'0 0.0
2018-Mar-27 13:30N 34°21' E 132°22'0 0.0
2018-Mar-27 13:00N 34°21' E 132°22'0 0.0
2018-Mar-27 12:30N 34°21' E 132°22'0 0.0
2018-Mar-27 12:00N 34°21' E 132°22'0 0.0
2018-Mar-27 11:30N 34°21' E 132°22'0 0.0
2018-Mar-27 10:57N 34°21' E 132°22'0 0.0
2018-Mar-27 10:30N 34°21' E 132°22'0 0.0
2018-Mar-27 10:00N 34°21' E 132°22'0 0.0
2018-Mar-27 09:30N 34°21' E 132°22'0 0.0
2018-Mar-27 09:00N 34°21' E 132°22'0 0.0
2018-Mar-27 08:28N 34°21' E 132°22'0 0.4
2018-Mar-27 08:00N 34°21' E 132°22'2 4.7
2018-Mar-27 07:30N 34°18' E 132°22'611.9
2018-Mar-27 07:00N 34°12' E 132°20'816.6
2018-Mar-27 06:30N 34°05' E 132°25'916.1
2018-Mar-27 05:57N 34°00' E 132°34'613.9
2018-Mar-27 05:30N 33°54' E 132°34'1117.2
2018-Mar-27 04:51N 33°46' E 132°24'616.8
2018-Mar-27 04:30N 33°44' E 132°18'1416.4
2018-Mar-27 03:39N 33°42' E 132°01'316.9
2018-Mar-27 03:29N 33°43' E 131°58'817.0
2018-Mar-27 03:01N 33°44' E 131°48'917.6
2018-Mar-27 02:31N 33°46' E 131°38'917.5
2018-Mar-27 02:00N 33°48' E 131°28'917.6
2018-Mar-27 01:31N 33°50' E 131°18'816.8
2018-Mar-27 01:01N 33°54' E 131°08'714.0
2018-Mar-27 00:30N 33°58' E 131°02'4 7.5
2018-Mar-27 00:00N 33°57' E 130°57'4 8.7
2018-Mar-26 23:31N 33°56' E 130°52'5 9.9
2018-Mar-26 23:01N 34°01' E 130°51'4 8.9
2018-Mar-26 22:31N 34°04' E 130°47'5 9.5
2018-Mar-26 22:00N 34°05' E 130°41'4 8.5
2018-Mar-26 21:30N 34°05' E 130°36'5 9.2
2018-Mar-26 21:01N 34°04' E 130°31'612.4
2018-Mar-26 20:30N 34°04' E 130°23'612.3
2018-Mar-26 20:00N 34°03' E 130°16'612.4
2018-Mar-26 19:30N 34°02' E 130°08'612.1
2018-Mar-26 19:00N 34°01' E 130°01'612.1
2018-Mar-26 18:30N 34°01' E 129°54'612.1
2018-Mar-26 18:01N 33°59' E 129°47'611.8
2018-Mar-26 17:30N 33°60' E 129°40'1012.1
2018-Mar-26 16:42N 33°59' E 129°28'212.3
2018-Mar-26 16:31N 33°59' E 129°25'612.3
2018-Mar-26 16:00N 33°59' E 129°17'612.4
2018-Mar-26 15:31N 33°58' E 129°10'612.8
2018-Mar-26 15:00N 33°58' E 129°02'612.6
2018-Mar-26 14:30N 33°57' E 128°55'713.4
2018-Mar-26 14:00N 33°57' E 128°47'715.1
2018-Mar-26 13:30N 33°56' E 128°38'715.0
2018-Mar-26 13:00N 33°55' E 128°29'714.9
2018-Mar-26 12:30N 33°55' E 128°20'714.1
2018-Mar-26 12:01N 33°54' E 128°11'816.5
2018-Mar-26 11:30N 33°53' E 128°01'816.1
2018-Mar-26 11:00N 33°52' E 127°52'816.6
2018-Mar-26 10:30N 33°51' E 127°42'816.8
2018-Mar-26 10:00N 33°51' E 127°32'917.1
2018-Mar-26 09:28N 33°50' E 127°21'916.8
2018-Mar-26 08:58N 33°49' E 127°10'918.2
2018-Mar-26 08:29N 33°48' E 126°60'817.0
2018-Mar-26 08:00N 33°48' E 126°50'816.0
2018-Mar-26 07:30N 33°48' E 126°41'815.7
2018-Mar-26 07:00N 33°47' E 126°31'816.0
2018-Mar-26 06:29N 33°46' E 126°21'  
Track history (hours):
 
Tides and Currents Weather Stations Pressure Air Temp Water Temp Dewpoint Dewpoint Depression Visibility Wind Speed Wind Dir Waves Ship Positions

HUAL Seoul

Last reported at 2018-Apr-01 07:51 UTC. Time now 2018-Apr-20 22:14 UTC.
Position N 34°41' E 140°33'.
Warning: this ship's position is 19 days out of date.

Type: Cargo ship. MMSI: 257496000.

Date/timePositionNaut miles runAvg speedWind from/ knotsBaromVisibWave heightAir tempDewpointWater temp
2018-Apr-01 07:51N 34°41' E 140°33'919.5
2018-Apr-01 07:24N 34°40' E 140°22'1320.4
2018-Apr-01 06:47N 34°40' E 140°07'1219.5
2018-Apr-01 06:09N 34°39' E 139°52'319.0
2018-Apr-01 05:59N 34°38' E 139°48'1019.3
2018-Apr-01 05:29N 34°38' E 139°36'919.5
2018-Apr-01 05:00N 34°37' E 139°25'1019.7
2018-Apr-01 04:31N 34°35' E 139°13'1019.1
2018-Apr-01 04:00N 34°32' E 139°02'1019.4
2018-Apr-01 03:29N 34°29' E 138°50'918.1
2018-Apr-01 03:00N 34°26' E 138°40'918.1
2018-Apr-01 02:30N 34°24' E 138°30'917.7
2018-Apr-01 01:59N 34°21' E 138°19'917.5
2018-Apr-01 01:28N 34°21' E 138°08'1016.7
2018-Apr-01 00:51N 34°21' E 137°56'616.5
2018-Apr-01 00:30N 34°20' E 137°49'915.5
2018-Mar-31 23:57N 34°25' E 137°40'816.4
2018-Mar-31 23:26N 34°26' E 137°30'716.3
2018-Mar-31 23:00N 34°27' E 137°21'1813.3
2018-Mar-31 21:37N 34°33' E 137°00'312.7
2018-Mar-31 21:25N 34°35' E 136°58'615.8
2018-Mar-31 21:01N 34°39' E 136°52'916.9
2018-Mar-31 20:30N 34°46' E 136°47'816.9
2018-Mar-31 20:01N 34°55' E 136°46'713.2
2018-Mar-31 19:30N 35°00' E 136°50'3 5.0
2018-Mar-31 18:59N 35°03' E 136°50'0 0.1
2018-Mar-31 18:29N 35°03' E 136°50'0 0.0
2018-Mar-31 17:59N 35°03' E 136°50'0 0.0
2018-Mar-31 17:29N 35°03' E 136°50'0 0.0
2018-Mar-31 16:59N 35°03' E 136°50'0 0.0
2018-Mar-31 16:29N 35°03' E 136°50'0 0.0
2018-Mar-31 15:59N 35°03' E 136°50'0 0.0
2018-Mar-31 15:29N 35°03' E 136°50'0 0.0
2018-Mar-31 14:59N 35°03' E 136°50'0 0.0
2018-Mar-31 14:29N 35°03' E 136°50'0 0.0
2018-Mar-31 13:59N 35°03' E 136°50'0 0.0
2018-Mar-31 13:29N 35°03' E 136°50'0 0.0
2018-Mar-31 12:59N 35°03' E 136°50'0 0.0
2018-Mar-31 12:29N 35°03' E 136°50'0 0.0
2018-Mar-31 11:59N 35°03' E 136°50'0 0.0
2018-Mar-31 11:29N 35°03' E 136°50'0 0.0
2018-Mar-31 10:59N 35°03' E 136°50'0 0.0
2018-Mar-31 10:29N 35°03' E 136°50'0 0.0
2018-Mar-31 09:55N 35°03' E 136°50'0 0.0
2018-Mar-31 09:29N 35°03' E 136°50'0 0.0
2018-Mar-31 08:59N 35°03' E 136°50'0 0.0
2018-Mar-31 08:26N 35°03' E 136°50'0 0.0
2018-Mar-31 08:00N 35°03' E 136°50'0 0.6
2018-Mar-31 07:30N 35°03' E 136°50'2 3.8
2018-Mar-31 07:00N 35°01' E 136°50'510.7
2018-Mar-31 06:30N 34°56' E 136°47'714.0
2018-Mar-31 06:00N 34°49' E 136°47'917.5
2018-Mar-31 05:30N 34°41' E 136°52'917.2
2018-Mar-31 05:00N 34°35' E 136°59'713.5
2018-Mar-31 04:30N 34°31' E 137°06'5 9.6
2018-Mar-31 03:59N 34°27' E 137°10'4 7.6
2018-Mar-31 03:31N 34°27' E 137°14'1 1.6
2018-Mar-31 03:01N 34°27' E 137°15'2 4.5
2018-Mar-31 02:30N 34°27' E 137°18'916.8
2018-Mar-31 01:59N 34°26' E 137°28'1518.5
2018-Mar-31 01:11N 34°24' E 137°46'418.9
2018-Mar-31 01:00N 34°24' E 137°50'1018.9
2018-Mar-31 00:29N 34°23' E 138°02'918.9
2018-Mar-31 00:00N 34°22' E 138°13'1018.5
2018-Mar-30 23:28N 34°21' E 138°25'818.1
2018-Mar-30 23:00N 34°24' E 138°35'917.8
2018-Mar-30 22:30N 34°26' E 138°45'917.7
2018-Mar-30 22:00N 34°30' E 138°55'817.1
2018-Mar-30 21:30N 34°33' E 139°04'917.6
2018-Mar-30 21:00N 34°35' E 139°15'1017.3
2018-Mar-30 20:27N 34°37' E 139°26'716.0
2018-Mar-30 20:00N 34°42' E 139°33'917.9
2018-Mar-30 19:30N 34°50' E 139°37'918.8
2018-Mar-30 19:00N 34°59' E 139°41'917.8
2018-Mar-30 18:30N 35°07' E 139°44'612.8
2018-Mar-30 18:00N 35°14' E 139°46'611.9
2018-Mar-30 17:30N 35°19' E 139°43'612.1
2018-Mar-30 17:00N 35°25' E 139°43'5 9.3
2018-Mar-30 16:30N 35°29' E 139°45'1 1.6
2018-Mar-30 15:58N 35°30' E 139°46'0 0.0
2018-Mar-30 15:30N 35°30' E 139°46'0 0.0
2018-Mar-30 15:00N 35°30' E 139°46'0 0.0
2018-Mar-30 14:30N 35°30' E 139°46'0 0.0
2018-Mar-30 14:00N 35°30' E 139°46'0 0.0
2018-Mar-30 13:30N 35°30' E 139°46'0 0.0
2018-Mar-30 13:00N 35°30' E 139°46'0 0.0
2018-Mar-30 12:30N 35°30' E 139°46'0 0.0
2018-Mar-30 12:00N 35°30' E 139°46'0 0.0
2018-Mar-30 11:30N 35°30' E 139°46'0 0.0
2018-Mar-30 11:00N 35°30' E 139°46'0 0.0
2018-Mar-30 10:30N 35°30' E 139°46'0 0.0
2018-Mar-30 10:01N 35°30' E 139°46'0 0.0
2018-Mar-30 09:31N 35°30' E 139°46'0 0.0
2018-Mar-30 09:00N 35°30' E 139°46'0 0.0
2018-Mar-30 08:30N 35°30' E 139°46'0 0.0
2018-Mar-30 08:00N 35°30' E 139°46'0 0.0
2018-Mar-30 07:30N 35°30' E 139°46'0 0.0
2018-Mar-30 07:00N 35°30' E 139°46'0 0.0
2018-Mar-30 06:30N 35°30' E 139°46'0 0.4
2018-Mar-30 06:00N 35°30' E 139°47'2 4.9
2018-Mar-30 05:30N 35°28' E 139°48'713.1
2018-Mar-30 05:01N 35°21' E 139°45'4 8.2
2018-Mar-30 04:30N 35°19' E 139°41'2 3.1
2018-Mar-30 03:59N 35°19' E 139°39'0 0.0
2018-Mar-30 03:30N 35°19' E 139°39'0 0.0
2018-Mar-30 03:00N 35°19' E 139°39'0 0.0
2018-Mar-30 02:30N 35°19' E 139°39'0 0.0
2018-Mar-30 02:00N 35°19' E 139°39'0 0.0
2018-Mar-30 01:30N 35°19' E 139°39'0 0.0
2018-Mar-30 01:00N 35°19' E 139°39'0 0.0
2018-Mar-30 00:30N 35°19' E 139°39'0 0.0
2018-Mar-30 00:00N 35°19' E 139°39'0 0.0
2018-Mar-29 23:30N 35°19' E 139°39'0 0.0
2018-Mar-29 23:00N 35°19' E 139°39'0 0.1
2018-Mar-29 22:30N 35°19' E 139°39'2 3.2
2018-Mar-29 22:00N 35°19' E 139°41'5 9.7
2018-Mar-29 21:30N 35°16' E 139°46'510.7
2018-Mar-29 21:00N 35°11' E 139°47'3 6.4
2018-Mar-29 20:30N 35°08' E 139°45'4 8.7
2018-Mar-29 20:00N 35°04' E 139°43'5 9.1
2018-Mar-29 19:31N 34°60' E 139°41'5 9.2
2018-Mar-29 19:00N 34°55' E 139°40'5 9.2
2018-Mar-29 18:30N 34°51' E 139°38'3 5.8
2018-Mar-29 18:00N 34°48' E 139°37'4 8.2
2018-Mar-29 17:30N 34°45' E 139°35'510.3
2018-Mar-29 17:00N 34°40' E 139°33'5 9.9
2018-Mar-29 16:30N 34°36' E 139°28'610.8
2018-Mar-29 15:57N 34°35' E 139°21'511.3
2018-Mar-29 15:30N 34°34' E 139°15'610.9
2018-Mar-29 14:58N 34°33' E 139°08'511.2
2018-Mar-29 14:30N 34°30' E 139°03'612.3
2018-Mar-29 14:01N 34°27' E 138°57'816.4
2018-Mar-29 13:30N 34°24' E 138°47'816.0
2018-Mar-29 13:00N 34°20' E 138°38'816.1
2018-Mar-29 12:30N 34°16' E 138°30'816.0
2018-Mar-29 11:59N 34°13' E 138°21'815.3
2018-Mar-29 11:29N 34°09' E 138°13'715.0
2018-Mar-29 11:01N 34°06' E 138°05'815.0
2018-Mar-29 10:28N 34°03' E 137°56'714.7
2018-Mar-29 10:00N 33°60' E 137°49'714.6
2018-Mar-29 09:30N 33°57' E 137°41'814.4
2018-Mar-29 08:58N 33°53' E 137°33'714.3
2018-Mar-29 08:29N 33°49' E 137°26'814.5
2018-Mar-29 07:55N 33°45' E 137°17'266 9.1
2018-Mar-28 02:46N 33°13' E 131°60'3 9.8
2018-Mar-28 02:29N 33°16' E 131°59'612.9
2018-Mar-28 02:00N 33°22' E 131°59'917.8
2018-Mar-28 01:30N 33°29' E 132°06'1018.7
2018-Mar-28 00:59N 33°36' E 132°14'817.4
2018-Mar-28 00:30N 33°41' E 132°22'917.4
2018-Mar-28 00:00N 33°47' E 132°30'815.3
2018-Mar-27 23:30N 33°53' E 132°35'814.0
2018-Mar-27 22:57N 34°01' E 132°33'715.2
2018-Mar-27 22:30N 34°04' E 132°25'815.8
2018-Mar-27 22:00N 34°11' E 132°20'815.5
2018-Mar-27 21:30N 34°18' E 132°22'2 4.5
2018-Mar-27 20:58N 34°21' E 132°22'0 0.0
2018-Mar-27 20:25N 34°21' E 132°22'0 0.0
2018-Mar-27 19:58N 34°21' E 132°22'0 0.0
2018-Mar-27 19:30N 34°21' E 132°22'0 0.0
2018-Mar-27 19:00N 34°21' E 132°22'0 0.0
2018-Mar-27 18:30N 34°21' E 132°22'0 0.0
2018-Mar-27 18:00N 34°21' E 132°22'0 0.0
2018-Mar-27 17:30N 34°21' E 132°22'0 0.0
2018-Mar-27 17:00N 34°21' E 132°22'0 0.0
2018-Mar-27 16:30N 34°21' E 132°22'0 0.0
2018-Mar-27 16:00N 34°21' E 132°22'0 0.0
2018-Mar-27 15:30N 34°21' E 132°22'0 0.0
2018-Mar-27 15:00N 34°21' E 132°22'0 0.0
2018-Mar-27 14:30N 34°21' E 132°22'0 0.0
2018-Mar-27 14:00N 34°21' E 132°22'0 0.0
2018-Mar-27 13:30N 34°21' E 132°22'0 0.0
2018-Mar-27 13:00N 34°21' E 132°22'0 0.0
2018-Mar-27 12:30N 34°21' E 132°22'0 0.0
2018-Mar-27 12:00N 34°21' E 132°22'0 0.0
2018-Mar-27 11:30N 34°21' E 132°22'0 0.0
2018-Mar-27 10:57N 34°21' E 132°22'0 0.0
2018-Mar-27 10:30N 34°21' E 132°22'0 0.0
2018-Mar-27 10:00N 34°21' E 132°22'0 0.0
2018-Mar-27 09:30N 34°21' E 132°22'0 0.0
2018-Mar-27 09:00N 34°21' E 132°22'0 0.0
2018-Mar-27 08:28N 34°21' E 132°22'0 0.4
2018-Mar-27 08:00N 34°21' E 132°22'2 4.7
2018-Mar-27 07:30N 34°18' E 132°22'611.9
2018-Mar-27 07:00N 34°12' E 132°20'816.6
2018-Mar-27 06:30N 34°05' E 132°25'916.1
2018-Mar-27 05:57N 34°00' E 132°34'613.9
2018-Mar-27 05:30N 33°54' E 132°34'1117.2
2018-Mar-27 04:51N 33°46' E 132°24'616.8
2018-Mar-27 04:30N 33°44' E 132°18'1416.4
2018-Mar-27 03:39N 33°42' E 132°01'316.9
2018-Mar-27 03:29N 33°43' E 131°58'817.0
2018-Mar-27 03:01N 33°44' E 131°48'917.6
2018-Mar-27 02:31N 33°46' E 131°38'917.5
2018-Mar-27 02:00N 33°48' E 131°28'917.6
2018-Mar-27 01:31N 33°50' E 131°18'816.8
2018-Mar-27 01:01N 33°54' E 131°08'714.0
2018-Mar-27 00:30N 33°58' E 131°02'4 7.5
2018-Mar-27 00:00N 33°57' E 130°57'4 8.7
2018-Mar-26 23:31N 33°56' E 130°52'5 9.9
2018-Mar-26 23:01N 34°01' E 130°51'4 8.9
2018-Mar-26 22:31N 34°04' E 130°47'5 9.5
2018-Mar-26 22:00N 34°05' E 130°41'4 8.5
2018-Mar-26 21:30N 34°05' E 130°36'5 9.2
2018-Mar-26 21:01N 34°04' E 130°31'612.4
2018-Mar-26 20:30N 34°04' E 130°23'612.3
2018-Mar-26 20:00N 34°03' E 130°16'612.4
2018-Mar-26 19:30N 34°02' E 130°08'612.1
2018-Mar-26 19:00N 34°01' E 130°01'612.1
2018-Mar-26 18:30N 34°01' E 129°54'612.1
2018-Mar-26 18:01N 33°59' E 129°47'611.8
2018-Mar-26 17:30N 33°60' E 129°40'1012.1
2018-Mar-26 16:42N 33°59' E 129°28'212.3
2018-Mar-26 16:31N 33°59' E 129°25'612.3
2018-Mar-26 16:00N 33°59' E 129°17'612.4
2018-Mar-26 15:31N 33°58' E 129°10'612.8
2018-Mar-26 15:00N 33°58' E 129°02'612.6
2018-Mar-26 14:30N 33°57' E 128°55'713.4
2018-Mar-26 14:00N 33°57' E 128°47'715.1
2018-Mar-26 13:30N 33°56' E 128°38'715.0
2018-Mar-26 13:00N 33°55' E 128°29'714.9
2018-Mar-26 12:30N 33°55' E 128°20'714.1
2018-Mar-26 12:01N 33°54' E 128°11'816.5
2018-Mar-26 11:30N 33°53' E 128°01'816.1
2018-Mar-26 11:00N 33°52' E 127°52'816.6
2018-Mar-26 10:30N 33°51' E 127°42'816.8
2018-Mar-26 10:00N 33°51' E 127°32'917.1
2018-Mar-26 09:28N 33°50' E 127°21'916.8
2018-Mar-26 08:58N 33°49' E 127°10'918.2
2018-Mar-26 08:29N 33°48' E 126°60'817.0
2018-Mar-26 08:00N 33°48' E 126°50'816.0
2018-Mar-26 07:30N 33°48' E 126°41'815.7
2018-Mar-26 07:00N 33°47' E 126°31'816.0
2018-Mar-26 06:29N 33°46' E 126°21'  

Dump ship's entire track history